Honeoye Falls, New York
Current Conditions -  °F | °C
As of 11:54 PM on Saturday 25 Oct 2014 (Local Time) from KROC Reporting Station
Few Clouds Few Clouds  
Wind Chill: 51°   Ceiling: Unl
Heat Index: 51°   Visibility: 10mi
Dew Point: 41°   Wind: 9mph
Humidity: 68%   Direction: 300°WNW
Pressure: 29.6"   Gusts: NA
Location:  42.95°N, 77.59°W
Report Text: KROC 260354Z 30008KT 10SM FEW020 11/05 A2960 RMK AO2 SLP026 T01060050
Loading
Personal Weather Stations






























Interactive Weather Map New forecast layout! Learn more

10-Day Weather Forecast

Advertisements
Track Severe Weather on mobile